Time;durP1;ratioP1;P1;durP2;ratioP2;P2;SDS_P1;SDS_P2;PMS_P1;PMS_P2;Temp;Humidity;BMP_temperature;BMP_pressure;BME280_temperature;BME280_humidity;BME280_pressure;Samples;Min_cycle;Max_cycle;Signal;HPM_P1;HPM_P2
2022/05/19 00:01:59;;;;;;;24.05;18.90;;;15.00;99.90;;;;;;5072856;28;20039;-48
2022/05/19 00:04:26;;;;;;;30.17;23.05;;;15.00;99.90;;;;;;5072602;28;20641;-45
2022/05/19 00:06:52;;;;;;;28.73;19.13;;;15.00;99.90;;;;;;5073012;28;20083;-46
2022/05/19 00:09:19;;;;;;;23.92;17.80;;;14.90;99.90;;;;;;5073249;28;20040;-45
2022/05/19 00:11:46;;;;;;;19.77;16.10;;;14.90;99.90;;;;;;5073114;28;20041;-45
2022/05/19 00:14:13;;;;;;;24.13;18.63;;;14.90;99.90;;;;;;5063027;28;20428;-46
2022/05/19 00:16:39;;;;;;;25.02;18.90;;;14.90;99.90;;;;;;5052897;28;20044;-47
2022/05/19 00:19:05;;;;;;;25.05;18.98;;;14.90;99.90;;;;;;5035446;28;20573;-48
2022/05/19 00:21:31;;;;;;;24.08;18.48;;;14.90;99.90;;;;;;5052979;28;20274;-46
2022/05/19 00:23:57;;;;;;;26.15;21.65;;;14.90;99.90;;;;;;5053313;28;20063;-46
2022/05/19 00:26:23;;;;;;;21.05;17.35;;;14.90;99.90;;;;;;5052749;28;20041;-49
2022/05/19 00:28:49;;;;;;;21.80;17.85;;;14.90;99.90;;;;;;5052632;28;20055;-46
2022/05/19 00:31:16;;;;;;;21.77;18.45;;;14.80;99.90;;;;;;5052907;28;20119;-47
2022/05/19 00:33:42;;;;;;;21.48;17.45;;;14.90;99.90;;;;;;5052936;28;20051;-46
2022/05/19 00:36:14;;;;;;;24.85;17.60;;;14.90;99.90;;;;;;5052932;28;20060;-47
2022/05/19 00:38:40;;;;;;;21.40;16.85;;;14.90;99.90;;;;;;5052443;28;20037;-45
2022/05/19 00:41:07;;;;;;;21.00;15.95;;;14.80;99.90;;;;;;5051397;28;20037;-46
2022/05/19 00:43:36;;;;;;;22.63;17.75;;;14.90;99.90;;;;;;5052636;28;20048;-47
2022/05/19 00:46:18;;;;;;;24.60;19.70;;;14.90;99.90;;;;;;5052232;28;20106;-46
2022/05/19 00:48:54;;;;;;;18.90;15.68;;;14.90;99.90;;;;;;5062031;28;20045;-47
2022/05/19 00:51:27;;;;;;;32.33;23.80;;;14.90;99.90;;;;;;5072314;28;20036;-46
2022/05/19 00:53:56;;;;;;;30.60;24.58;;;14.90;99.90;;;;;;5071790;28;20047;-47
2022/05/19 00:56:40;;;;;;;24.73;18.25;;;14.90;99.90;;;;;;5072355;28;20420;-46
2022/05/19 00:59:07;;;;;;;;;;;14.80;99.90;;;;;;5071500;28;20044;-46
2022/05/19 01:01:38;;;;;;;23.77;19.60;;;14.80;99.90;;;;;;5064331;28;19921;-46
2022/05/19 01:04:32;;;;;;;31.63;25.65;;;14.80;99.90;;;;;;5052853;28;20170;-47
2022/05/19 01:07:02;;;;;;;;;;;14.90;99.90;;;;;;5050750;28;20052;-45
2022/05/19 01:09:34;;;;;;;23.25;18.95;;;14.80;99.90;;;;;;5056867;28;19938;-45
2022/05/19 01:12:02;;;;;;;27.77;22.43;;;14.80;99.90;;;;;;5050855;28;20049;-46
2022/05/19 01:14:27;;;;;;;35.95;27.02;;;14.90;99.90;;;;;;5055289;28;20063;-47
2022/05/19 01:16:53;;;;;;;29.48;22.88;;;14.90;99.90;;;;;;5059130;28;20040;-45
2022/05/19 01:19:59;;;;;;;25.88;20.58;;;14.80;99.90;;;;;;5057506;28;20514;-44
2022/05/19 01:22:33;;;;;;;32.40;24.83;;;14.90;99.90;;;;;;5025932;28;20033;-45
2022/05/19 01:25:08;;;;;;;24.50;21.48;;;14.80;99.90;;;;;;5025528;28;20076;-44
2022/05/19 01:27:36;;;;;;;25.60;21.83;;;14.90;99.90;;;;;;4995626;28;20041;-47
2022/05/19 01:30:08;;;;;;;30.50;24.45;;;14.90;99.90;;;;;;5021376;28;20110;-47
2022/05/19 01:32:35;;;;;;;38.92;28.92;;;14.90;99.90;;;;;;5051865;28;20051;-47
2022/05/19 01:35:02;;;;;;;34.35;28.65;;;14.90;99.90;;;;;;5050403;28;20041;-46
2022/05/19 01:37:28;;;;;;;36.50;31.08;;;14.80;99.90;;;;;;5052615;28;20041;-45
2022/05/19 01:40:02;;;;;;;34.88;26.23;;;14.80;99.90;;;;;;5050849;28;20123;-45
2022/05/19 01:42:52;;;;;;;33.00;25.15;;;14.80;99.90;;;;;;5051430;28;20389;-44
2022/05/19 01:45:44;;;;;;;30.80;26.98;;;14.80;99.90;;;;;;5058800;28;20045;-43
2022/05/19 01:48:25;;;;;;;26.65;23.75;;;14.80;99.90;;;;;;5055232;28;20045;-46
2022/05/19 01:51:00;;;;;;;29.10;23.40;;;14.80;99.90;;;;;;5058971;28;20051;-43
2022/05/19 01:53:43;;;;;;;29.00;24.35;;;14.80;99.90;;;;;;5054165;28;20060;-45
2022/05/19 01:56:11;;;;;;;37.78;32.38;;;14.80;99.90;;;;;;5055009;28;20119;-43
2022/05/19 01:59:18;;;;;;;31.85;23.75;;;14.80;99.90;;;;;;5055089;28;20069;-43
2022/05/19 02:01:52;;;;;;;40.03;31.48;;;14.80;99.90;;;;;;5051503;28;20392;-45
2022/05/19 02:04:37;;;;;;;37.83;31.65;;;14.80;99.90;;;;;;5048731;28;20080;-44
2022/05/19 02:07:07;;;;;;;34.47;24.95;;;14.80;99.90;;;;;;5059239;28;20044;-45
2022/05/19 02:09:40;;;;;;;38.28;30.20;;;14.80;99.90;;;;;;5052321;28;20055;-44
2022/05/19 02:12:08;;;;;;;40.60;33.90;;;14.70;99.90;;;;;;5061537;28;20120;-44
2022/05/19 02:14:48;;;;;;;42.33;33.28;;;14.70;99.90;;;;;;5052890;28;20043;-48
2022/05/19 02:17:17;;;;;;;45.97;36.83;;;14.70;99.90;;;;;;5051927;28;20049;-44
2022/05/19 02:19:46;;;;;;;53.67;39.08;;;14.60;99.90;;;;;;5055307;28;20130;-44
2022/05/19 02:22:17;;;;;;;38.80;31.90;;;14.60;99.90;;;;;;5050138;28;20401;-45
2022/05/19 02:24:52;;;;;;;51.20;39.00;;;14.60;99.90;;;;;;5053774;28;20041;-44
2022/05/19 02:27:43;;;;;;;53.85;42.30;;;14.60;99.90;;;;;;5055408;28;20048;-44
2022/05/19 02:30:14;;;;;;;50.83;37.33;;;14.70;99.90;;;;;;5057032;28;20168;-45
2022/05/19 02:32:40;;;;;;;50.20;39.75;;;14.70;99.90;;;;;;5060257;28;20044;-46
2022/05/19 02:35:07;;;;;;;52.08;43.47;;;14.70;99.90;;;;;;5055764;28;20043;-44
2022/05/19 02:37:33;;;;;;;50.25;42.83;;;14.70;99.90;;;;;;5055133;28;20128;-45
2022/05/19 02:39:59;;;;;;;53.85;42.78;;;14.80;99.90;;;;;;5055308;28;20082;-45
2022/05/19 02:42:25;;;;;;;45.92;39.08;;;14.80;99.90;;;;;;5060369;28;20489;-43
2022/05/19 02:44:51;;;;;;;41.25;33.95;;;14.90;99.90;;;;;;5054093;28;20048;-45
2022/05/19 02:47:17;;;;;;;52.70;37.70;;;14.90;99.90;;;;;;5056342;28;20063;-44
2022/05/19 02:49:43;;;;;;;45.83;37.72;;;15.00;99.90;;;;;;5057051;28;20052;-44
2022/05/19 02:52:09;;;;;;;40.17;31.27;;;15.00;99.90;;;;;;5054623;28;20071;-43
2022/05/19 02:54:35;;;;;;;43.67;32.30;;;15.10;99.90;;;;;;5056835;28;20055;-44
2022/05/19 02:57:00;;;;;;;44.97;34.45;;;15.10;99.90;;;;;;5051679;28;20047;-43
2022/05/19 02:59:26;;;;;;;44.35;34.53;;;15.10;99.90;;;;;;5052975;28;20045;-45
2022/05/19 03:01:52;;;;;;;50.83;40.58;;;15.20;99.90;;;;;;5061733;28;20106;-44
2022/05/19 03:04:18;;;;;;;41.58;34.95;;;15.30;99.90;;;;;;5056412;28;20073;-44
2022/05/19 03:06:44;;;;;;;46.55;38.45;;;15.30;99.90;;;;;;5057210;28;20044;-44
2022/05/19 03:09:10;;;;;;;44.83;36.10;;;15.30;99.90;;;;;;5053772;28;20075;-44
2022/05/19 03:11:36;;;;;;;54.17;40.92;;;15.30;99.90;;;;;;5059865;28;20381;-45
2022/05/19 03:14:01;;;;;;;54.67;38.42;;;15.40;99.90;;;;;;5059815;28;20035;-45
2022/05/19 03:16:27;;;;;;;44.35;36.63;;;15.40;99.90;;;;;;5052556;28;20083;-44
2022/05/19 03:18:53;;;;;;;47.25;38.05;;;15.40;99.90;;;;;;5054249;28;20053;-45
2022/05/19 03:21:19;;;;;;;47.17;37.20;;;15.40;99.90;;;;;;5051544;28;20029;-45
2022/05/19 03:23:45;;;;;;;41.53;34.03;;;15.50;99.90;;;;;;5057114;28;20484;-45
2022/05/19 03:26:11;;;;;;;43.08;37.05;;;15.50;99.90;;;;;;5057158;28;20048;-43
2022/05/19 03:28:37;;;;;;;46.92;38.55;;;15.50;99.90;;;;;;5065046;28;20028;-45
2022/05/19 03:31:03;;;;;;;39.55;32.90;;;15.50;99.90;;;;;;5056785;28;20479;-44
2022/05/19 03:33:29;;;;;;;46.38;36.85;;;15.50;99.90;;;;;;5056367;28;20029;-44
2022/05/19 03:35:59;;;;;;;44.17;36.35;;;15.60;99.90;;;;;;5055067;28;20459;-45
2022/05/19 03:38:25;;;;;;;43.47;35.78;;;15.60;99.90;;;;;;5056660;28;20037;-46
2022/05/19 03:40:51;;;;;;;43.10;34.65;;;15.60;99.90;;;;;;5058921;28;20075;-45
2022/05/19 03:43:17;;;;;;;49.90;38.53;;;15.60;99.90;;;;;;5054543;28;20469;-46
2022/05/19 03:45:43;;;;;;;47.35;36.92;;;15.60;99.90;;;;;;5053460;28;20040;-46
2022/05/19 03:48:09;;;;;;;50.80;39.25;;;15.70;99.90;;;;;;5055904;28;20161;-45
2022/05/19 03:50:35;;;;;;;46.25;40.38;;;15.70;99.90;;;;;;5054010;28;20083;-45
2022/05/19 03:53:01;;;;;;;44.03;35.38;;;15.70;99.90;;;;;;5050019;28;20453;-45
2022/05/19 03:55:28;;;;;;;49.13;35.80;;;15.70;99.90;;;;;;5055740;28;20046;-48
2022/05/19 03:57:54;;;;;;;42.20;36.72;;;15.70;99.90;;;;;;5055482;28;20051;-46
2022/05/19 04:00:21;;;;;;;50.72;40.90;;;15.70;99.90;;;;;;5056182;28;20043;-46
2022/05/19 04:02:47;;;;;;;46.85;38.58;;;15.70;99.90;;;;;;5051716;28;20058;-46
2022/05/19 04:05:14;;;;;;;46.38;36.47;;;15.70;99.90;;;;;;5050368;28;20044;-46
2022/05/19 04:07:41;;;;;;;55.80;43.03;;;15.70;99.90;;;;;;5051412;28;20489;-46
2022/05/19 04:10:09;;;;;;;45.13;37.35;;;15.80;99.90;;;;;;5054712;28;20120;-47
2022/05/19 04:12:35;;;;;;;47.40;38.65;;;15.80;99.90;;;;;;5056050;28;20067;-46
2022/05/19 04:15:02;;;;;;;53.97;41.53;;;15.80;99.90;;;;;;5055524;28;20043;-46
2022/05/19 04:17:33;;;;;;;49.38;41.88;;;15.80;99.90;;;;;;5055797;28;20489;-49
2022/05/19 04:20:01;;;;;;;45.47;38.10;;;15.90;99.90;;;;;;5053057;28;20063;-46
2022/05/19 04:22:27;;;;;;;49.00;39.88;;;15.90;99.90;;;;;;5056281;28;20040;-46
2022/05/19 04:24:53;;;;;;;49.33;37.35;;;15.90;99.90;;;;;;5056905;28;20040;-46
2022/05/19 04:27:19;;;;;;;52.58;38.80;;;16.00;99.90;;;;;;5053185;28;20124;-45
2022/05/19 04:29:47;;;;;;;49.80;41.60;;;16.00;99.90;;;;;;5050770;28;20048;-46
2022/05/19 04:32:13;;;;;;;46.47;38.47;;;16.00;99.90;;;;;;5050329;28;20052;-45
2022/05/19 04:34:38;;;;;;;48.08;38.38;;;16.10;99.90;;;;;;5057526;28;20524;-47
2022/05/19 04:37:04;;;;;;;45.05;37.00;;;16.10;99.90;;;;;;5058846;28;20175;-46
2022/05/19 04:39:30;;;;;;;50.03;38.15;;;16.10;99.90;;;;;;5059934;28;20048;-46
2022/05/19 04:41:56;;;;;;;44.60;35.85;;;16.20;99.90;;;;;;5059572;28;20048;-45
2022/05/19 04:44:21;;;;;;;40.00;32.50;;;16.20;99.90;;;;;;5050926;28;20044;-46
2022/05/19 04:46:47;;;;;;;36.72;30.65;;;16.30;99.90;;;;;;5054783;28;20033;-46
2022/05/19 04:49:13;;;;;;;39.65;32.80;;;16.30;99.90;;;;;;5057392;28;20048;-46
2022/05/19 04:51:39;;;;;;;40.28;33.80;;;16.30;99.90;;;;;;5057913;28;20463;-46
2022/05/19 04:54:06;;;;;;;36.70;32.33;;;16.40;99.90;;;;;;5048356;28;20120;-48
2022/05/19 04:56:32;;;;;;;43.25;34.17;;;16.40;99.90;;;;;;5052796;28;20048;-48
2022/05/19 04:58:57;;;;;;;42.88;32.95;;;16.50;99.90;;;;;;5038231;28;20036;-48
2022/05/19 05:01:23;;;;;;;41.67;35.33;;;16.60;99.90;;;;;;5051350;28;20377;-46
2022/05/19 05:03:49;;;;;;;43.03;35.38;;;16.60;99.90;;;;;;5051083;28;20083;-45
2022/05/19 05:06:15;;;;;;;45.38;35.72;;;16.80;99.90;;;;;;5056200;28;20388;-47
2022/05/19 05:08:40;;;;;;;40.53;35.78;;;16.80;99.90;;;;;;5052514;28;20044;-46
2022/05/19 05:11:07;;;;;;;45.85;34.33;;;16.90;99.90;;;;;;5051019;28;20037;-48
2022/05/19 05:13:32;;;;;;;43.65;35.70;;;16.90;99.90;;;;;;5050267;28;20040;-46
2022/05/19 05:15:58;;;;;;;43.33;36.00;;;16.90;99.90;;;;;;5051677;28;20063;-47
2022/05/19 05:18:24;;;;;;;45.50;36.15;;;17.00;99.90;;;;;;5054844;28;20578;-48
2022/05/19 05:20:50;;;;;;;44.92;35.25;;;17.00;99.90;;;;;;5052367;28;20043;-45
2022/05/19 05:23:16;;;;;;;40.30;35.10;;;17.10;99.90;;;;;;5056126;28;20040;-49
2022/05/19 05:25:42;;;;;;;41.70;33.67;;;17.10;99.90;;;;;;5051735;28;20045;-46
2022/05/19 05:28:08;;;;;;;41.83;31.83;;;17.10;99.90;;;;;;5048895;28;20126;-46
2022/05/19 05:30:34;;;;;;;34.90;30.98;;;17.20;99.90;;;;;;5036904;28;20055;-47
2022/05/19 05:33:09;;;;;;;38.13;31.40;;;17.20;99.90;;;;;;5050715;28;20531;-48
2022/05/19 05:35:35;;;;;;;38.80;30.55;;;17.30;99.90;;;;;;5054471;28;20505;-46
2022/05/19 05:38:01;;;;;;;38.42;31.10;;;17.30;99.90;;;;;;5049041;28;20044;-45
2022/05/19 05:40:27;;;;;;;39.03;31.50;;;17.40;99.90;;;;;;5078206;23;20045;-47
2022/05/19 05:42:53;;;;;;;39.08;33.55;;;17.40;99.90;;;;;;5071471;28;20044;-47
2022/05/19 05:45:19;;;;;;;38.33;31.85;;;17.40;99.90;;;;;;5062143;28;20117;-45
2022/05/19 05:47:45;;;;;;;36.88;30.80;;;17.30;99.90;;;;;;5070572;28;20074;-47
2022/05/19 05:50:11;;;;;;;38.20;32.67;;;17.30;99.90;;;;;;5054041;28;20067;-46
2022/05/19 05:52:37;;;;;;;37.95;31.08;;;17.20;99.90;;;;;;5063041;28;20037;-47
2022/05/19 05:55:03;;;;;;;38.85;32.72;;;17.20;99.90;;;;;;5063723;28;20452;-46
2022/05/19 05:57:29;;;;;;;35.90;30.58;;;17.10;99.90;;;;;;5065959;28;20049;-44
2022/05/19 05:59:55;;;;;;;41.65;33.95;;;17.10;99.90;;;;;;5060077;28;20083;-43
2022/05/19 06:02:21;;;;;;;43.35;35.03;;;17.10;99.90;;;;;;5064333;28;20049;-44
2022/05/19 06:04:47;;;;;;;40.95;33.03;;;17.10;99.90;;;;;;5070284;28;20051;-44
2022/05/19 06:07:14;;;;;;;43.53;35.97;;;17.10;99.90;;;;;;5068577;28;20103;-47
2022/05/19 06:09:39;;;;;;;46.75;34.40;;;17.10;99.90;;;;;;5071022;28;20463;-43
2022/05/19 06:12:06;;;;;;;48.83;40.15;;;17.10;99.90;;;;;;5071591;28;20068;-46
2022/05/19 06:14:32;;;;;;;45.15;36.65;;;17.10;99.90;;;;;;5059809;28;20044;-44
2022/05/19 06:16:58;;;;;;;44.83;38.17;;;17.10;99.90;;;;;;5050643;28;20051;-48
2022/05/19 06:19:23;;;;;;;46.67;39.63;;;17.10;99.90;;;;;;5069626;28;20040;-44
2022/05/19 06:21:49;;;;;;;50.58;41.90;;;17.10;99.90;;;;;;5058274;28;20043;-48
2022/05/19 06:24:16;;;;;;;45.38;39.63;;;17.20;99.90;;;;;;5062364;28;20068;-46
2022/05/19 06:26:42;;;;;;;44.25;38.58;;;17.20;99.90;;;;;;5065026;28;20036;-44
2022/05/19 06:29:09;;;;;;;44.15;35.28;;;17.20;99.90;;;;;;5070557;28;22493;-47
2022/05/19 06:31:35;;;;;;;46.22;38.03;;;17.30;99.90;;;;;;5055731;28;20052;-44
2022/05/19 06:34:01;;;;;;;58.70;44.40;;;17.30;99.90;;;;;;5061679;28;20106;-44
2022/05/19 06:36:27;;;;;;;51.20;40.00;;;17.30;99.90;;;;;;5071490;28;20037;-48
2022/05/19 06:38:53;;;;;;;46.95;39.63;;;17.30;99.90;;;;;;5068150;28;20108;-45
2022/05/19 06:44:04;;;;;;;53.67;44.88;;;17.40;99.90;;;;;;5066150;28;20049;-46
2022/05/19 06:46:30;;;;;;;44.70;37.13;;;17.40;99.90;;;;;;5064142;28;20071;-47
2022/05/19 06:48:55;;;;;;;36.38;32.13;;;17.40;99.90;;;;;;5063490;28;20068;-45
2022/05/19 06:51:21;;;;;;;43.53;33.50;;;17.40;99.90;;;;;;5065749;28;20499;-44
2022/05/19 06:53:47;;;;;;;46.92;36.33;;;17.40;99.90;;;;;;5061860;28;20063;-48
2022/05/19 06:56:13;;;;;;;46.63;37.65;;;17.50;99.90;;;;;;5065652;28;20040;-43
2022/05/19 06:58:38;;;;;;;49.78;38.80;;;17.50;99.90;;;;;;5059173;28;20048;-43
2022/05/19 07:01:04;;;;;;;38.58;31.38;;;17.50;99.90;;;;;;5065285;28;20041;-43
2022/05/19 07:03:31;;;;;;;35.15;29.45;;;17.50;99.90;;;;;;5061350;28;20052;-44
2022/05/19 07:05:57;;;;;;;48.53;38.10;;;17.50;99.90;;;;;;5060237;28;20033;-43
2022/05/19 07:08:22;;;;;;;38.30;30.27;;;17.50;99.90;;;;;;5061364;28;20029;-44
2022/05/19 07:10:49;;;;;;;56.55;40.00;;;17.50;99.90;;;;;;5061386;28;20078;-45
2022/05/19 07:13:14;;;;;;;42.13;29.50;;;17.50;99.90;;;;;;5063428;28;20403;-44
2022/05/19 07:15:40;;;;;;;43.22;33.22;;;17.60;99.90;;;;;;5059663;28;20124;-45
2022/05/19 07:18:08;;;;;;;49.63;37.90;;;17.60;99.90;;;;;;5062169;28;20671;-42
2022/05/19 07:20:44;;;;;;;44.30;35.70;;;17.70;99.90;;;;;;5065765;28;20033;-43
2022/05/19 07:23:14;;;;;;;41.08;31.27;;;17.70;99.90;;;;;;5058749;28;20961;-43
2022/05/19 07:25:41;;;;;;;42.08;35.15;;;17.70;99.90;;;;;;5068285;28;20044;-42
2022/05/19 07:28:07;;;;;;;51.17;36.00;;;17.80;99.90;;;;;;5066780;28;20127;-42
2022/05/19 07:30:33;;;;;;;35.63;28.90;;;17.80;99.90;;;;;;5057987;28;20037;-42
2022/05/19 07:32:59;;;;;;;38.33;30.45;;;17.90;99.90;;;;;;5061301;28;20090;-43
2022/05/19 07:35:25;;;;;;;45.50;34.40;;;18.00;99.90;;;;;;5071494;28;20040;-43
2022/05/19 07:37:51;;;;;;;34.53;28.67;;;18.10;99.90;;;;;;5064269;28;20041;-44
2022/05/19 07:40:17;;;;;;;47.85;36.97;;;18.10;99.90;;;;;;5068635;28;20459;-44
2022/05/19 07:42:43;;;;;;;42.30;33.35;;;18.20;99.90;;;;;;5054857;28;20048;-43
2022/05/19 07:45:10;;;;;;;38.00;30.63;;;18.30;99.90;;;;;;5062036;28;20466;-42
2022/05/19 07:47:36;;;;;;;37.53;29.30;;;18.30;99.90;;;;;;5072827;28;20032;-42
2022/05/19 07:50:03;;;;;;;40.25;32.85;;;18.30;99.90;;;;;;5061475;28;20119;-45
2022/05/19 07:52:29;;;;;;;35.92;32.00;;;18.30;99.90;;;;;;5061136;28;20040;-47
2022/05/19 07:54:54;;;;;;;33.75;29.05;;;18.40;99.90;;;;;;5058732;28;20036;-45
2022/05/19 07:57:21;;;;;;;38.00;33.47;;;18.40;99.90;;;;;;5061067;28;20554;-43
2022/05/19 07:59:47;;;;;;;36.53;30.92;;;18.40;99.90;;;;;;5059653;28;20159;-44
2022/05/19 08:02:13;;;;;;;35.15;29.05;;;18.40;99.90;;;;;;5065702;28;20120;-44
2022/05/19 08:04:39;;;;;;;38.70;31.83;;;18.40;99.90;;;;;;5068758;28;20047;-43
2022/05/19 08:07:06;;;;;;;39.50;33.35;;;18.40;99.90;;;;;;5063701;28;20515;-42
2022/05/19 08:15:34;;;;;;;37.97;30.58;;;18.40;99.90;;;;;;5070571;28;20097;-43
2022/05/19 08:17:49;;;;;;;37.58;26.52;;;18.40;99.90;;;;;;5065425;28;20052;-44
2022/05/19 08:20:16;;;;;;;38.72;27.38;;;18.40;99.90;;;;;;5059415;28;20032;-44
2022/05/19 08:22:42;;;;;;;33.63;24.50;;;18.40;99.90;;;;;;5053662;28;20044;-44
2022/05/19 08:25:08;;;;;;;33.17;23.50;;;18.50;99.90;;;;;;5051350;28;20054;-43
2022/05/19 08:27:34;;;;;;;32.20;23.13;;;18.40;99.90;;;;;;5057955;28;20111;-44
2022/05/19 08:30:00;;;;;;;26.98;21.13;;;18.40;99.90;;;;;;5058636;28;20116;-43
2022/05/19 08:32:25;;;;;;;37.85;21.38;;;18.50;99.90;;;;;;5060394;28;20033;-43
2022/05/19 08:34:52;;;;;;;34.78;19.15;;;18.60;99.90;;;;;;5059683;28;20095;-44
2022/05/19 08:37:17;;;;;;;33.22;19.58;;;18.60;99.90;;;;;;5063402;28;20037;-45
2022/05/19 08:39:43;;;;;;;32.83;18.83;;;18.60;99.90;;;;;;5061400;28;20432;-43
2022/05/19 08:42:13;;;;;;;35.55;19.35;;;18.60;99.90;;;;;;5056029;28;20029;-43
2022/05/19 08:44:45;;;;;;;40.15;20.15;;;18.70;99.90;;;;;;5059337;28;20040;-44
2022/05/19 08:47:13;;;;;;;30.10;20.52;;;18.70;99.90;;;;;;5059440;28;20432;-46
2022/05/19 08:49:46;;;;;;;37.13;20.83;;;18.80;99.90;;;;;;5058151;28;20098;-44
2022/05/19 08:52:16;;;;;;;33.65;20.10;;;18.80;99.90;;;;;;5059957;28;20515;-44
2022/05/19 08:54:47;;;;;;;31.58;22.67;;;18.80;99.90;;;;;;5057760;28;20036;-43
2022/05/19 08:57:36;;;;;;;28.52;21.05;;;18.90;99.90;;;;;;5054140;28;20044;-44
2022/05/19 09:00:05;;;;;;;32.92;21.30;;;18.90;99.90;;;;;;5060664;28;20033;-45
2022/05/19 09:02:56;;;;;;;28.58;21.75;;;19.00;99.90;;;;;;5059549;28;20037;-44
2022/05/19 09:05:42;;;;;;;28.35;17.73;;;19.10;99.90;;;;;;5058721;28;20041;-44
2022/05/19 09:08:29;;;;;;;29.00;19.60;;;19.20;99.90;;;;;;5054143;28;20068;-46
2022/05/19 09:11:12;;;;;;;27.75;19.05;;;19.30;99.90;;;;;;5056712;28;20400;-44
2022/05/19 09:13:56;;;;;;;26.33;17.92;;;19.40;99.90;;;;;;5049927;28;20051;-45
2022/05/19 09:16:27;;;;;;;33.35;20.80;;;19.40;99.90;;;;;;5054114;28;20056;-44
2022/05/19 09:18:59;;;;;;;32.13;18.33;;;19.40;99.90;;;;;;5060189;28;20033;-44
2022/05/19 09:21:26;;;;;;;31.80;20.83;;;19.50;99.90;;;;;;5055168;28;20103;-43
2022/05/19 09:23:52;;;;;;;32.78;23.95;;;19.50;99.90;;;;;;5053124;28;20199;-44
2022/05/19 09:26:29;;;;;;;26.75;22.63;;;19.50;99.90;;;;;;5057145;28;20041;-46
2022/05/19 09:28:57;;;;;;;32.70;24.55;;;19.60;99.90;;;;;;5063465;28;20032;-46
2022/05/19 09:31:35;;;;;;;30.58;21.60;;;19.60;99.90;;;;;;5038343;28;20049;-46
2022/05/19 09:34:01;;;;;;;35.33;25.45;;;19.50;99.90;;;;;;5046815;28;20079;-46
2022/05/19 09:36:27;;;;;;;30.60;25.45;;;19.50;99.90;;;;;;5044607;28;20037;-49
2022/05/19 09:39:00;;;;;;;31.27;26.17;;;19.50;99.90;;;;;;5058144;28;20032;-47
2022/05/19 09:41:32;;;;;;;30.77;25.35;;;19.50;99.90;;;;;;5054247;28;20214;-46
2022/05/19 09:43:59;;;;;;;32.15;25.48;;;19.60;99.90;;;;;;5054610;28;20820;-44
2022/05/19 09:46:40;;;;;;;33.17;23.92;;;19.80;99.90;;;;;;5058392;28;20086;-45
2022/05/19 09:49:17;;;;;;;28.95;23.17;;;20.00;99.90;;;;;;5052061;28;20520;-44
2022/05/19 09:51:48;;;;;;;32.53;23.75;;;20.20;99.90;;;;;;5056578;28;20041;-44
